Terminal Aerodrome Forecast
Issued by NWS Charleston, WV

Home | Current Version | Previous Version | Text Only | Print | Product List | Glossary On
Versions: 1 2 3 4 5 6 7 8 9 10 11 12 13 14 15 16 17 18 19 20 21
000
FTUS41 KRLX 010539
TAFBKW
TAF
KBKW 010539Z 0106/0206 13003KT P6SM BKN080
     FM010700 14003KT P6SM SCT080
     FM011800 16006KT P6SM VCSH BKN045
     FM020000 15004KT P6SM BKN060
     FM020300 15002KT P6SM BKN080=

USA.gov is the U.S. government's official web portal to all federal, state and local government web resources and services.